Friday, February 23, 2018, 1:46 PM EST
Back to Local

KRKD, Rockland, Knox County Regional Airport

Location: Owls Head, ME, United States Lat: 44.067
Local Time: 1:46 PM EST (18:46 GMT) Lon: -69.1
Time Zone: US/Eastern Elev: 55 ft

Show me the last for .
Show Decoded

2018-02-23 12:56 METAR KRKD 231756Z AUTO 11011KT 10SM CLR M01/M06 A3061 RMK AO2 PRESFR SLP367
                 T10061061 10000 21033 58039 FZRANO =
2018-02-23 11:56 METAR KRKD 231656Z AUTO 09010KT 10SM CLR M01/M07 A3065 RMK AO2 SLP380 T10061067
                 FZRANO =
2018-02-23 10:56 METAR KRKD 231556Z AUTO 08007KT 10SM CLR M01/M08 A3069 RMK AO2 SLP395 T10111078
                 FZRANO =
2018-02-23 09:56 METAR KRKD 231456Z AUTO 08007KT 10SM CLR M02/M09 A3072 RMK AO2 SLP405 T10171089
                 58005 FZRANO =
2018-02-23 08:56 METAR KRKD 231356Z AUTO 07009KT 10SM CLR M02/M08 A3072 RMK AO2 SLP406 T10171083
                 FZRANO =
2018-02-23 07:56 METAR KRKD 231256Z AUTO 06009KT 10SM CLR M02/M09 A3074 RMK AO2 SLP411 T10221094
                 FZRANO =
2018-02-23 06:56 METAR KRKD 231156Z AUTO 06006KT 10SM CLR M03/M11 A3074 RMK AO2 SLP411 T10331106
                 11017 21039 50003 FZRANO =
2018-02-23 05:56 METAR KRKD 231056Z AUTO 04005KT 10SM CLR M04/M11 A3074 RMK AO2 SLP413 T10391106
                 FZRANO =
2018-02-23 04:56 METAR KRKD 230956Z AUTO 05006KT 10SM CLR M03/M11 A3074 RMK AO2 SLP413 T10331106
                 FZRANO =
2018-02-23 03:56 METAR KRKD 230856Z AUTO 03004KT 10SM CLR M03/M09 A3073 RMK AO2 SLP408 T10331089
                 53005 FZRANO =
2018-02-23 02:56 METAR KRKD 230756Z AUTO 04004KT 10SM CLR M03/M10 A3071 RMK AO2 SLP402 T10331100
                 FZRANO =
2018-02-23 01:56 METAR KRKD 230656Z AUTO 00000KT 10SM CLR M03/M11 A3072 RMK AO2 SLP404 T10281106
                 FZRANO =
2018-02-23 00:56 METAR KRKD 230556Z AUTO 02006KT 10SM CLR M02/M11 A3071 RMK AO2 SLP403 T10221106
                 10006 21028 53012 FZRANO =
2018-02-22 23:56 METAR KRKD 230456Z AUTO 04005KT 10SM CLR M02/M10 A3069 RMK AO2 SLP396 T10171100
                 400721028 FZRANO =
2018-02-22 22:56 METAR KRKD 230356Z AUTO 02004KT 10SM BKN090 M01/M11 A3069 RMK AO2 SLP393
                 T10061106 FZRANO =
2018-02-22 21:56 METAR KRKD 230256Z AUTO VRB03KT 10SM CLR M01/M11 A3068 RMK AO2 SLP391 T10061111
                 53001 FZRANO =
2018-02-22 20:56 METAR KRKD 230156Z AUTO 00000KT 10SM CLR M01/M11 A3067 RMK AO2 SLP386 T10111106
                 FZRANO =
2018-02-22 19:56 METAR KRKD 230056Z AUTO 00000KT 10SM CLR M02/M08 A3066 RMK AO2 SLP385 T10221078
                 FZRANO =
2018-02-22 18:56 METAR KRKD 222356Z AUTO 29003KT 10SM FEW110 01/M13 A3068 RMK AO2 SLP390 60000
                 T00061128 10022 20000 53014 FZRANO =
2018-02-22 17:56 METAR KRKD 222256Z AUTO 31003KT 10SM SCT110 01/M13 A3066 RMK AO2 SLP384
                 T00111133 FZRANO =
2018-02-22 16:56 METAR KRKD 222156Z AUTO 32003KT 10SM OVC100 01/M14 A3065 RMK AO2 SLP381
                 T00111139 FZRANO =
2018-02-22 15:56 METAR KRKD 222056Z AUTO VRB04KT 10SM OVC100 02/M13 A3063 RMK AO2 UPE02 SLP376
                 P0000 60000 T00171128 53000 FZRANO =
2018-02-22 14:56 METAR KRKD 221956Z AUTO 29006KT 10SM UP FEW070 SCT100 02/M09 A3062 RMK AO2
                 RAB41E50UPB50 SLP369 P0000 T00221094 FZRANO =
2018-02-22 13:56 METAR KRKD 221856Z AUTO 00000KT 10SM BKN070 01/M08 A3063 RMK AO2 SLP372
                 T00111078 FZRANO =

Support USWX by starting your Amazon purchase here.